createdAt,value
2019-05-30T00:00:46.377Z,10.90
2019-05-30T00:03:16.382Z,11.00
2019-05-30T00:05:45.940Z,11.00
2019-05-30T00:08:15.683Z,11.00
2019-05-30T00:10:45.468Z,11.00
2019-05-30T00:13:15.210Z,11.10
2019-05-30T00:15:45.082Z,11.10
2019-05-30T00:18:14.863Z,11.10
2019-05-30T00:20:44.480Z,11.00
2019-05-30T00:23:33.087Z,11.00
2019-05-30T00:26:03.378Z,11.00
2019-05-30T00:28:33.303Z,11.00
2019-05-30T00:31:02.841Z,11.00
2019-05-30T00:33:32.539Z,10.90
2019-05-30T00:36:02.268Z,11.00
2019-05-30T00:38:32.171Z,10.90
2019-05-30T00:41:02.095Z,11.00
2019-05-30T00:43:31.763Z,11.00
2019-05-30T00:46:02.157Z,11.10
2019-05-30T00:48:31.843Z,11.00
2019-05-30T00:51:02.628Z,11.10
2019-05-30T00:53:32.366Z,11.10
2019-05-30T00:56:03.087Z,11.20
2019-05-30T00:58:32.690Z,11.10
2019-05-30T01:01:03.120Z,11.20
2019-05-30T01:03:32.844Z,11.20
2019-05-30T01:06:03.017Z,11.10
2019-05-30T01:08:32.514Z,11.10
2019-05-30T01:11:03.172Z,11.10
2019-05-30T01:13:32.852Z,11.10
2019-05-30T01:16:03.201Z,11.10
2019-05-30T01:18:33.037Z,11.00
2019-05-30T01:21:03.288Z,11.10
2019-05-30T01:23:33.021Z,11.00
2019-05-30T01:26:03.450Z,10.90
2019-05-30T01:28:33.222Z,11.00
2019-05-30T01:31:08.258Z,11.00
2019-05-30T01:33:34.220Z,10.90
2019-05-30T01:36:03.894Z,10.90
2019-05-30T01:38:33.530Z,10.90
2019-05-30T01:41:04.143Z,11.00
2019-05-30T01:43:33.886Z,11.00
2019-05-30T01:46:04.239Z,11.00
2019-05-30T01:48:34.108Z,11.00
2019-05-30T01:51:04.607Z,11.00
2019-05-30T01:53:34.532Z,11.00
2019-05-30T01:56:04.815Z,11.10
2019-05-30T01:58:34.604Z,11.00
2019-05-30T02:01:18.977Z,11.00
2019-05-30T02:03:35.789Z,11.10
2019-05-30T02:06:05.574Z,11.10
2019-05-30T02:08:35.594Z,11.00
2019-05-30T02:11:05.550Z,11.00
2019-05-30T02:13:35.377Z,11.00
2019-05-30T02:16:05.852Z,11.10
2019-05-30T02:18:35.514Z,11.00
2019-05-30T02:21:05.878Z,11.10
2019-05-30T02:23:35.815Z,11.00
2019-05-30T02:26:06.321Z,10.90
2019-05-30T02:28:36.148Z,10.90
2019-05-30T02:31:07.089Z,10.90
2019-05-30T02:33:37.279Z,10.90
2019-05-30T02:36:25.860Z,11.00
2019-05-30T02:38:55.393Z,11.10
2019-05-30T02:41:25.360Z,11.00
2019-05-30T02:43:54.907Z,10.90
2019-05-30T02:46:24.632Z,10.90
2019-05-30T02:48:58.752Z,10.90
2019-05-30T02:51:25.604Z,11.00
2019-05-30T02:53:55.266Z,10.90
2019-05-30T02:56:24.946Z,10.90
2019-05-30T02:58:54.631Z,10.90
2019-05-30T03:01:24.343Z,10.90
2019-05-30T03:03:53.985Z,10.90
2019-05-30T03:06:23.851Z,10.90
2019-05-30T03:08:53.742Z,10.90
2019-05-30T03:11:23.378Z,10.90
2019-05-30T03:13:52.954Z,10.80
2019-05-30T03:16:22.480Z,10.80
2019-05-30T03:18:52.112Z,10.80
2019-05-30T03:21:21.967Z,10.80
2019-05-30T03:23:51.716Z,10.90
2019-05-30T03:26:21.273Z,10.90
2019-05-30T03:28:53.551Z,10.90
2019-05-30T03:31:29.396Z,10.80
2019-05-30T03:33:56.837Z,10.80
2019-05-30T03:36:30.769Z,10.80
2019-05-30T03:38:57.772Z,10.80
2019-05-30T03:41:27.495Z,10.80
2019-05-30T03:43:57.061Z,10.80
2019-05-30T03:46:30.204Z,10.70
2019-05-30T03:49:04.127Z,10.70
2019-05-30T03:51:35.062Z,10.60
2019-05-30T03:54:07.159Z,10.70
2019-05-30T03:56:57.345Z,10.60
2019-05-30T03:59:32.406Z,10.60
2019-05-30T04:02:11.747Z,10.70
2019-05-30T04:04:47.539Z,10.70
2019-05-30T04:07:20.845Z,10.60
2019-05-30T04:09:53.881Z,10.60
2019-05-30T04:13:00.238Z,10.60
2019-05-30T04:15:32.881Z,10.70
2019-05-30T04:18:02.803Z,10.60
2019-05-30T04:20:32.632Z,10.60
2019-05-30T04:23:02.540Z,10.60
2019-05-30T04:25:32.082Z,10.70
2019-05-30T04:28:01.678Z,10.70
2019-05-30T04:30:31.646Z,10.70
2019-05-30T04:33:17.083Z,10.60
2019-05-30T04:35:32.488Z,10.70
2019-05-30T04:38:02.108Z,10.70
2019-05-30T04:40:31.823Z,10.60
2019-05-30T04:43:01.605Z,10.70
2019-05-30T04:45:31.218Z,10.70
2019-05-30T04:48:00.776Z,10.70
2019-05-30T04:50:30.437Z,10.70
2019-05-30T04:53:00.024Z,10.60
2019-05-30T04:55:29.765Z,10.60
2019-05-30T04:57:59.573Z,10.60
2019-05-30T05:00:31.356Z,10.70
2019-05-30T05:03:00.984Z,10.70
2019-05-30T05:05:30.743Z,10.70
2019-05-30T05:08:00.329Z,10.80
2019-05-30T05:10:29.935Z,10.70
2019-05-30T05:12:59.700Z,10.70
2019-05-30T05:15:29.380Z,10.80
2019-05-30T05:17:59.024Z,10.80
2019-05-30T05:20:28.594Z,10.90
2019-05-30T05:22:58.223Z,11.00
2019-05-30T05:25:27.788Z,11.00
2019-05-30T05:27:57.557Z,11.10
2019-05-30T05:30:27.238Z,11.10
2019-05-30T05:32:56.923Z,11.40
2019-05-30T05:35:26.552Z,12.00
2019-05-30T05:37:56.090Z,12.40
2019-05-30T05:40:25.654Z,12.20
2019-05-30T05:42:55.229Z,12.10
2019-05-30T05:45:25.168Z,12.00
2019-05-30T05:47:54.864Z,11.90
2019-05-30T05:50:24.644Z,12.00
2019-05-30T05:52:54.247Z,12.00
2019-05-30T05:55:24.976Z,12.00
2019-05-30T05:57:54.534Z,11.90
2019-05-30T06:00:25.314Z,12.00
2019-05-30T06:02:55.167Z,12.00
2019-05-30T06:05:25.101Z,12.00
2019-05-30T06:07:54.685Z,12.00
2019-05-30T06:10:24.328Z,12.00
2019-05-30T06:12:54.100Z,12.10
2019-05-30T06:15:24.919Z,12.10
2019-05-30T06:17:54.739Z,12.20
2019-05-30T06:20:25.350Z,12.20
2019-05-30T06:22:55.148Z,12.30
2019-05-30T06:25:32.912Z,12.40
2019-05-30T06:28:02.130Z,12.40
2019-05-30T06:30:50.756Z,12.60
2019-05-30T06:33:20.673Z,12.70
2019-05-30T06:35:50.453Z,12.80
2019-05-30T06:38:21.050Z,12.80
2019-05-30T06:40:50.994Z,12.90
2019-05-30T06:43:21.849Z,12.90
2019-05-30T06:45:51.732Z,13.00
2019-05-30T06:48:22.530Z,13.00
2019-05-30T06:50:52.447Z,13.10
2019-05-30T06:53:23.287Z,13.20
2019-05-30T06:55:52.961Z,13.40
2019-05-30T06:58:38.895Z,13.50
2019-05-30T07:00:53.703Z,13.80
2019-05-30T07:03:24.252Z,13.90
2019-05-30T07:05:54.468Z,14.10
2019-05-30T07:08:24.680Z,14.30
2019-05-30T07:10:54.619Z,14.40
2019-05-30T07:13:25.242Z,14.70
2019-05-30T07:15:55.017Z,14.80
2019-05-30T07:18:25.424Z,15.30
2019-05-30T07:20:55.154Z,15.70
2019-05-30T07:23:25.810Z,15.80
2019-05-30T07:25:55.735Z,15.70
2019-05-30T07:28:37.079Z,16.10
2019-05-30T07:31:06.847Z,17.00
2019-05-30T07:33:36.381Z,18.10
2019-05-30T07:36:06.119Z,18.90
2019-05-30T07:38:35.849Z,19.80
2019-05-30T07:41:05.856Z,20.30
2019-05-30T07:43:35.682Z,21.00
2019-05-30T07:46:05.438Z,21.70
2019-05-30T07:48:35.048Z,21.50
2019-05-30T07:51:04.857Z,21.10
2019-05-30T07:53:34.964Z,21.50
2019-05-30T07:56:04.992Z,21.90
2019-05-30T07:58:35.347Z,22.00
2019-05-30T08:01:05.032Z,22.20
2019-05-30T08:03:34.915Z,22.70
2019-05-30T08:06:04.758Z,23.00
2019-05-30T08:08:34.467Z,23.00
2019-05-30T08:11:09.394Z,23.40
2019-05-30T08:13:35.331Z,23.70
2019-05-30T08:16:04.881Z,23.80
2019-05-30T08:18:35.745Z,24.10
2019-05-30T08:21:05.437Z,23.90
2019-05-30T08:23:36.304Z,23.40
2019-05-30T08:26:05.989Z,23.50
2019-05-30T08:28:36.404Z,23.60
2019-05-30T08:31:06.065Z,22.60
2019-05-30T08:33:35.643Z,22.40
2019-05-30T08:36:05.861Z,22.70
2019-05-30T08:38:35.610Z,22.50
2019-05-30T08:41:05.148Z,22.40
2019-05-30T08:43:35.582Z,22.20
2019-05-30T08:46:05.279Z,21.80
2019-05-30T08:48:36.112Z,21.30
2019-05-30T08:51:05.808Z,20.50
2019-05-30T08:53:36.402Z,20.00
2019-05-30T08:56:06.169Z,19.70
2019-05-30T08:58:36.810Z,19.20
2019-05-30T09:01:06.385Z,18.80
2019-05-30T09:03:35.946Z,18.20
2019-05-30T09:06:05.681Z,18.20
2019-05-30T09:08:35.959Z,18.10
2019-05-30T09:11:05.689Z,18.00
2019-05-30T09:13:35.996Z,17.90
2019-05-30T09:16:06.581Z,18.90
2019-05-30T09:18:36.840Z,20.10
2019-05-30T09:21:07.583Z,20.80
2019-05-30T09:23:38.643Z,21.40
2019-05-30T09:26:08.593Z,22.50
2019-05-30T09:28:39.487Z,22.40
2019-05-30T09:31:28.719Z,21.70
2019-05-30T09:33:58.277Z,21.00
2019-05-30T09:36:27.832Z,20.60
2019-05-30T09:38:57.500Z,20.40
2019-05-30T09:41:27.433Z,20.50
2019-05-30T09:43:57.023Z,20.20
2019-05-30T09:46:26.843Z,20.00
2019-05-30T09:48:56.667Z,20.80
2019-05-30T09:51:26.466Z,21.30
2019-05-30T09:53:56.218Z,21.80
2019-05-30T09:56:26.210Z,22.40
2019-05-30T09:58:56.029Z,23.20
2019-05-30T10:01:25.599Z,24.40
2019-05-30T10:03:55.175Z,25.00
2019-05-30T10:06:29.528Z,25.00
2019-05-30T10:08:56.097Z,24.80
2019-05-30T10:11:25.824Z,24.50
2019-05-30T10:13:56.804Z,23.70
2019-05-30T10:16:26.577Z,23.30
2019-05-30T10:18:57.022Z,22.40
2019-05-30T10:21:26.948Z,21.70
2019-05-30T10:24:03.805Z,21.40
2019-05-30T10:26:33.395Z,21.30
2019-05-30T10:29:02.911Z,21.20
2019-05-30T10:31:32.582Z,21.20
2019-05-30T10:34:02.221Z,21.10
2019-05-30T10:36:43.516Z,21.10
2019-05-30T10:39:03.144Z,20.90
2019-05-30T10:41:32.707Z,21.00
2019-05-30T10:44:02.198Z,21.00
2019-05-30T10:46:31.971Z,21.00
2019-05-30T10:49:01.532Z,21.30
2019-05-30T10:51:41.777Z,21.50
2019-05-30T10:54:11.316Z,22.20
2019-05-30T10:56:40.871Z,22.20
2019-05-30T10:59:10.421Z,23.50
2019-05-30T11:01:39.968Z,24.50
2019-05-30T11:04:09.508Z,25.00
2019-05-30T11:07:09.901Z,24.90
2019-05-30T11:09:26.408Z,24.30
2019-05-30T11:11:57.098Z,23.50
2019-05-30T11:14:26.767Z,23.40
2019-05-30T11:16:57.699Z,23.50
2019-05-30T11:19:27.490Z,24.10
2019-05-30T11:21:58.161Z,24.90
2019-05-30T11:24:28.044Z,25.30
2019-05-30T11:26:58.893Z,25.30
2019-05-30T11:29:28.602Z,25.00
2019-05-30T11:31:59.079Z,24.50
2019-05-30T11:34:29.160Z,24.00
2019-05-30T11:37:00.896Z,23.70
2019-05-30T11:39:30.292Z,23.20
2019-05-30T11:41:59.854Z,22.90
2019-05-30T11:44:29.642Z,22.50
2019-05-30T11:46:59.838Z,22.50
2019-05-30T11:49:29.572Z,22.50
2019-05-30T11:51:59.955Z,22.60
2019-05-30T11:54:29.838Z,23.30
2019-05-30T11:57:00.294Z,23.90
2019-05-30T11:59:30.030Z,24.10
2019-05-30T12:02:00.540Z,24.40
2019-05-30T12:04:30.216Z,24.20
2019-05-30T12:07:00.910Z,24.20
2019-05-30T12:09:30.628Z,23.60
2019-05-30T12:12:01.343Z,23.30
2019-05-30T12:14:31.007Z,22.70
2019-05-30T12:17:01.486Z,22.30
2019-05-30T12:19:31.434Z,22.40
2019-05-30T12:22:02.087Z,22.20
2019-05-30T12:24:31.744Z,21.90
2019-05-30T12:27:02.369Z,21.50
2019-05-30T12:29:32.013Z,20.80
2019-05-30T12:32:02.320Z,20.50
2019-05-30T12:34:33.166Z,20.20
2019-05-30T12:37:02.879Z,19.80
2019-05-30T12:39:32.703Z,19.60
2019-05-30T12:42:03.347Z,19.40
2019-05-30T12:44:33.112Z,19.20
2019-05-30T12:47:03.473Z,19.20
2019-05-30T12:49:33.077Z,19.20
2019-05-30T12:52:03.241Z,19.10
2019-05-30T12:54:32.959Z,19.20
2019-05-30T12:57:05.490Z,19.30
2019-05-30T12:59:35.700Z,19.70
2019-05-30T13:02:05.265Z,19.90
2019-05-30T13:04:43.893Z,20.30
2019-05-30T13:07:13.523Z,21.10
2019-05-30T13:09:43.066Z,21.30
2019-05-30T13:12:12.823Z,22.00
2019-05-30T13:14:42.547Z,21.70
2019-05-30T13:17:12.184Z,21.30
2019-05-30T13:19:42.216Z,21.00
2019-05-30T13:22:11.885Z,20.60
2019-05-30T13:24:41.521Z,20.40
2019-05-30T13:27:11.031Z,20.20
2019-05-30T13:29:40.698Z,20.00
2019-05-30T13:32:10.523Z,19.60
2019-05-30T13:34:40.375Z,19.70
2019-05-30T13:37:10.375Z,19.70
2019-05-30T13:39:40.269Z,19.70
2019-05-30T13:42:09.815Z,20.00
2019-05-30T13:44:39.630Z,20.10
2019-05-30T13:47:09.675Z,20.40
2019-05-30T13:49:39.434Z,20.40
2019-05-30T13:52:09.237Z,20.60
2019-05-30T13:54:38.856Z,20.50
2019-05-30T13:57:09.678Z,20.30
2019-05-30T13:59:39.429Z,20.00
2019-05-30T14:02:10.163Z,19.80
2019-05-30T14:04:39.855Z,20.00
2019-05-30T14:07:10.444Z,20.00
2019-05-30T14:09:40.123Z,20.00
2019-05-30T14:12:10.668Z,20.00
2019-05-30T14:14:40.339Z,20.10
2019-05-30T14:17:12.321Z,20.30
2019-05-30T14:19:41.477Z,20.50
2019-05-30T14:22:11.391Z,20.60
2019-05-30T14:24:41.135Z,20.70
2019-05-30T14:27:11.757Z,20.60
2019-05-30T14:29:41.540Z,20.60
2019-05-30T14:32:12.022Z,20.60
2019-05-30T14:34:41.553Z,20.50
2019-05-30T14:37:11.124Z,20.20
2019-05-30T14:39:41.041Z,20.10
2019-05-30T14:42:11.213Z,19.90
2019-05-30T14:44:40.934Z,19.70
2019-05-30T14:47:10.661Z,19.80
2019-05-30T14:49:40.178Z,19.60
2019-05-30T14:52:11.756Z,19.50
2019-05-30T14:54:41.312Z,19.30
2019-05-30T14:57:11.008Z,19.30
2019-05-30T14:59:40.612Z,19.20
2019-05-30T15:02:11.271Z,18.90
2019-05-30T15:04:40.927Z,18.80
2019-05-30T15:07:29.532Z,18.90
2019-05-30T15:09:59.240Z,19.00
2019-05-30T15:12:28.897Z,18.90
2019-05-30T15:14:58.733Z,18.80
2019-05-30T15:17:28.484Z,18.90
2019-05-30T15:19:58.018Z,18.90
2019-05-30T15:22:27.768Z,18.90
2019-05-30T15:25:03.465Z,18.80
2019-05-30T15:27:33.119Z,18.80
2019-05-30T15:30:02.760Z,18.50
2019-05-30T15:32:32.384Z,18.50
2019-05-30T15:35:01.924Z,18.50
2019-05-30T15:37:31.936Z,18.60
2019-05-30T15:40:01.556Z,18.60
2019-05-30T15:42:31.350Z,18.80
2019-05-30T15:45:01.102Z,18.90
2019-05-30T15:47:30.624Z,18.80
2019-05-30T15:50:00.151Z,18.90
2019-05-30T15:52:29.669Z,18.90
2019-05-30T15:54:59.225Z,18.90
2019-05-30T15:57:28.785Z,18.70
2019-05-30T15:59:58.329Z,18.70
2019-05-30T16:02:27.880Z,18.60
2019-05-30T16:04:57.424Z,18.50
2019-05-30T16:07:27.008Z,18.60
2019-05-30T16:09:56.535Z,18.80
2019-05-30T16:12:26.178Z,18.80
2019-05-30T16:14:55.744Z,18.80
2019-05-30T16:17:25.611Z,18.70
2019-05-30T16:19:55.566Z,18.60
2019-05-30T16:22:25.242Z,18.60
2019-05-30T16:24:54.894Z,18.60
2019-05-30T16:27:24.546Z,18.50
2019-05-30T16:29:54.125Z,18.50
2019-05-30T16:32:23.886Z,18.30
2019-05-30T16:34:53.543Z,18.30
2019-05-30T16:37:23.222Z,18.20
2019-05-30T16:40:05.215Z,18.10
2019-05-30T16:42:24.842Z,18.10
2019-05-30T16:44:54.713Z,18.00
2019-05-30T16:47:24.376Z,18.00
2019-05-30T16:49:54.136Z,18.00
2019-05-30T16:52:23.817Z,18.00
2019-05-30T16:54:53.451Z,17.90
2019-05-30T16:57:23.084Z,17.90
2019-05-30T16:59:52.781Z,17.80
2019-05-30T17:02:22.851Z,17.70
2019-05-30T17:04:52.374Z,17.70
2019-05-30T17:07:23.287Z,17.60
2019-05-30T17:09:53.056Z,17.60
2019-05-30T17:12:23.791Z,17.60
2019-05-30T17:14:53.426Z,17.50
2019-05-30T17:17:24.092Z,17.50
2019-05-30T17:19:53.652Z,17.50
2019-05-30T17:22:23.212Z,17.40
2019-05-30T17:24:54.584Z,17.30
2019-05-30T17:27:23.974Z,17.30
2019-05-30T17:30:13.991Z,17.30
2019-05-30T17:32:43.771Z,17.20
2019-05-30T17:35:13.721Z,17.10
2019-05-30T17:37:43.269Z,17.10
2019-05-30T17:40:13.822Z,17.10
2019-05-30T17:42:43.467Z,17.00
2019-05-30T17:45:14.061Z,16.90
2019-05-30T17:47:43.611Z,16.90
2019-05-30T17:50:13.829Z,16.90
2019-05-30T17:52:43.366Z,16.90
2019-05-30T17:55:13.735Z,16.80
2019-05-30T17:57:43.574Z,16.80
2019-05-30T18:00:15.509Z,16.70
2019-05-30T18:02:45.234Z,16.70
2019-05-30T18:05:15.428Z,16.70
2019-05-30T18:07:45.338Z,16.60
2019-05-30T18:10:16.731Z,16.60
2019-05-30T18:12:46.340Z,16.50
2019-05-30T18:15:17.958Z,16.40
2019-05-30T18:17:47.797Z,16.40
2019-05-30T18:20:17.778Z,16.20
2019-05-30T18:22:47.505Z,16.20
2019-05-30T18:25:19.101Z,16.10
2019-05-30T18:27:49.006Z,16.10
2019-05-30T18:30:18.932Z,16.00
2019-05-30T18:32:48.771Z,15.90
2019-05-30T18:35:18.412Z,15.90
2019-05-30T18:37:48.060Z,15.80
2019-05-30T18:40:30.791Z,15.60
2019-05-30T18:43:00.627Z,15.50
2019-05-30T18:45:38.212Z,15.40
2019-05-30T18:48:08.154Z,15.30
2019-05-30T18:50:37.708Z,15.10
2019-05-30T18:53:07.555Z,15.00
2019-05-30T18:55:37.220Z,14.90
2019-05-30T18:58:07.715Z,14.60
2019-05-30T19:00:37.708Z,14.50
2019-05-30T19:03:07.268Z,14.40
2019-05-30T19:05:37.233Z,14.30
2019-05-30T19:08:07.146Z,14.20
2019-05-30T19:10:36.799Z,14.10
2019-05-30T19:13:06.496Z,14.00
2019-05-30T19:15:36.130Z,13.90
2019-05-30T19:18:08.993Z,13.80
2019-05-30T19:20:37.195Z,13.70
2019-05-30T19:23:06.808Z,13.60
2019-05-30T19:25:37.779Z,13.50
2019-05-30T19:28:07.478Z,13.30
2019-05-30T19:30:40.341Z,13.20
2019-05-30T19:33:08.687Z,13.20
2019-05-30T19:35:38.237Z,13.10
2019-05-30T19:38:07.881Z,13.00
2019-05-30T19:40:38.063Z,12.90
2019-05-30T19:43:07.966Z,12.80
2019-05-30T19:45:38.300Z,12.80
2019-05-30T19:48:08.042Z,12.70
2019-05-30T19:50:38.755Z,12.60
2019-05-30T19:53:08.544Z,12.50
2019-05-30T19:55:39.363Z,12.50
2019-05-30T19:58:09.274Z,12.60
2019-05-30T20:00:56.987Z,12.50
2019-05-30T20:03:10.081Z,12.50
2019-05-30T20:05:40.893Z,12.60
2019-05-30T20:08:10.519Z,12.40
2019-05-30T20:10:41.337Z,12.30
2019-05-30T20:13:11.118Z,12.10
2019-05-30T20:15:41.501Z,12.10
2019-05-30T20:18:11.468Z,12.10
2019-05-30T20:20:54.188Z,12.20
2019-05-30T20:23:12.479Z,12.20
2019-05-30T20:25:45.587Z,12.00
2019-05-30T20:28:13.754Z,11.90
2019-05-30T20:31:02.387Z,11.80
2019-05-30T20:33:32.043Z,11.80
2019-05-30T20:36:01.717Z,11.70
2019-05-30T20:38:31.676Z,11.60
2019-05-30T20:41:01.402Z,11.70
2019-05-30T20:43:33.186Z,11.70
2019-05-30T20:46:02.552Z,11.70
2019-05-30T20:48:32.264Z,11.70
2019-05-30T20:51:01.889Z,11.60
2019-05-30T20:53:31.520Z,11.60
2019-05-30T20:56:01.025Z,11.60
2019-05-30T20:58:30.658Z,11.60
2019-05-30T21:01:00.285Z,11.70
2019-05-30T21:03:30.173Z,11.50
2019-05-30T21:06:00.493Z,11.50
2019-05-30T21:08:31.666Z,11.40
2019-05-30T21:11:03.011Z,11.40
2019-05-30T21:13:36.213Z,11.50
2019-05-30T21:16:06.927Z,11.40
2019-05-30T21:18:37.713Z,11.40
2019-05-30T21:21:07.481Z,11.30
2019-05-30T21:23:38.237Z,11.30
2019-05-30T21:26:08.029Z,11.40
2019-05-30T21:28:38.657Z,11.40
2019-05-30T21:31:08.320Z,11.30
2019-05-30T21:33:38.029Z,11.40
2019-05-30T21:36:08.955Z,11.30
2019-05-30T21:38:39.915Z,11.30
2019-05-30T21:41:28.573Z,11.40
2019-05-30T21:43:58.092Z,11.50
2019-05-30T21:46:27.756Z,11.40
2019-05-30T21:48:57.316Z,11.40
2019-05-30T21:51:27.004Z,11.30
2019-05-30T21:53:56.832Z,11.20
2019-05-30T21:56:26.447Z,11.30
2019-05-30T21:58:56.114Z,11.20
2019-05-30T22:01:30.624Z,11.20
2019-05-30T22:04:00.825Z,11.20
2019-05-30T22:06:31.004Z,11.20
2019-05-30T22:11:32.100Z,11.20
2019-05-30T22:12:01.939Z,11.20
2019-05-30T22:14:01.766Z,11.30
2019-05-30T22:16:31.263Z,11.30
2019-05-30T22:19:00.892Z,11.30
2019-05-30T22:21:30.563Z,11.20
2019-05-30T22:24:00.276Z,11.30
2019-05-30T22:26:29.933Z,11.10
2019-05-30T22:29:02.663Z,11.20
2019-05-30T22:31:32.301Z,11.30
2019-05-30T22:34:01.922Z,11.20
2019-05-30T22:36:31.818Z,11.10
2019-05-30T22:39:01.390Z,11.20
2019-05-30T22:41:30.950Z,11.10
2019-05-30T22:44:00.726Z,11.10
2019-05-30T22:46:30.223Z,11.20
2019-05-30T22:48:59.926Z,11.10
2019-05-30T22:51:29.489Z,11.10
2019-05-30T22:53:59.052Z,11.00
2019-05-30T22:56:28.870Z,10.90
2019-05-30T22:58:58.518Z,10.90
2019-05-30T23:01:28.180Z,10.70
2019-05-30T23:03:57.952Z,10.80
2019-05-30T23:06:27.579Z,10.80
2019-05-30T23:08:57.260Z,10.80
2019-05-30T23:11:27.037Z,10.80
2019-05-30T23:13:56.711Z,10.70
2019-05-30T23:16:26.438Z,10.80
2019-05-30T23:18:56.866Z,10.80
2019-05-30T23:21:26.658Z,10.70
2019-05-30T23:23:57.288Z,10.70
2019-05-30T23:26:27.032Z,10.70
2019-05-30T23:28:57.905Z,10.60
2019-05-30T23:31:27.527Z,10.50
2019-05-30T23:33:58.558Z,10.50
2019-05-30T23:36:28.366Z,10.50
2019-05-30T23:38:58.918Z,10.40
2019-05-30T23:41:28.616Z,10.20
2019-05-30T23:44:10.695Z,10.20
2019-05-30T23:46:29.729Z,10.40
2019-05-30T23:48:59.838Z,10.40
2019-05-30T23:51:29.557Z,10.30
2019-05-30T23:54:00.387Z,10.20
2019-05-30T23:56:30.255Z,10.20
2019-05-30T23:59:01.142Z,10.30
